Time;durP1;ratioP1;P1;durP2;ratioP2;P2;SDS_P1;SDS_P2;PMS_P1;PMS_P2;Temp;Humidity;BMP_temperature;BMP_pressure;BME280_temperature;BME280_humidity;BME280_pressure;Samples;Min_cycle;Max_cycle;Signal;HPM_P1;HPM_P2
2021/09/11 00:01:19;;;;;;;4.22;2.33;;;;;;;14.91;58.99;96727.58;1679233;84;21070;-83
2021/09/11 00:03:45;;;;;;;4.35;2.10;;;;;;;14.89;59.13;96729.09;1682469;84;21123;-83
2021/09/11 00:06:11;;;;;;;9.25;3.47;;;;;;;14.88;58.78;96731.41;1686892;84;21411;-83
2021/09/11 00:08:38;;;;;;;2.35;1.60;;;;;;;14.87;58.60;96727.18;1681708;84;21098;-83
2021/09/11 00:11:04;;;;;;;3.83;2.00;;;;;;;14.87;58.79;96728.48;1683776;84;21455;-83
2021/09/11 00:13:29;;;;;;;2.30;1.92;;;;;;;14.87;58.90;96722.45;1643555;86;21043;-83
2021/09/11 00:15:55;;;;;;;3.40;2.05;;;;;;;14.87;58.45;96714.09;1673060;84;21066;-83
2021/09/11 00:18:21;;;;;;;3.58;2.15;;;;;;;14.87;58.57;96723.25;1662300;83;21077;-83
2021/09/11 00:20:47;;;;;;;4.33;2.25;;;;;;;14.86;58.58;96709.06;1681137;84;22848;-83
2021/09/11 00:23:13;;;;;;;3.42;2.50;;;;;;;14.83;58.68;96716.02;1673428;84;21112;-83
2021/09/11 00:25:38;;;;;;;2.92;1.92;;;;;;;14.82;58.73;96720.44;1668048;84;21101;-83
2021/09/11 00:28:04;;;;;;;2.75;2.08;;;;;;;14.81;58.84;96718.83;1671595;84;21141;-83
2021/09/11 00:30:30;;;;;;;3.00;2.20;;;;;;;14.80;58.95;96714.58;1682647;84;21430;-83
2021/09/11 00:32:55;;;;;;;3.12;2.08;;;;;;;14.80;59.13;96715.08;1688635;84;21023;-83
2021/09/11 00:35:21;;;;;;;3.15;1.92;;;;;;;14.78;59.21;96710.05;1699818;84;21078;-83
2021/09/11 00:37:47;;;;;;;4.90;2.05;;;;;;;14.78;58.39;96717.09;1692397;84;21059;-83
2021/09/11 00:40:16;;;;;;;3.83;2.12;;;;;;;14.80;58.91;96713.27;1701395;84;21074;-83
2021/09/11 00:42:46;;;;;;;3.75;2.30;;;;;;;14.82;58.46;96713.91;1704383;84;21038;-83
2021/09/11 00:45:09;;;;;;;4.45;2.10;;;;;;;14.81;58.72;96716.22;1697675;84;21017;-83
2021/09/11 00:47:36;;;;;;;4.50;2.95;;;;;;;14.79;58.58;96705.63;1670542;84;21059;-83
2021/09/11 00:50:03;;;;;;;3.85;1.80;;;;;;;14.76;58.80;96703.41;1666181;85;21395;-83
2021/09/11 00:52:29;;;;;;;2.75;1.75;;;;;;;14.76;58.58;96707.34;1671222;84;21057;-83
2021/09/11 00:54:54;;;;;;;4.35;2.08;;;;;;;14.73;58.51;96703.31;1678394;84;21095;-83
2021/09/11 00:57:20;;;;;;;4.00;2.30;;;;;;;14.73;58.74;96707.23;1681004;84;21458;-83
2021/09/11 00:59:46;;;;;;;3.42;2.20;;;;;;;14.70;58.58;96705.83;1693237;84;21023;-83
2021/09/11 01:02:12;;;;;;;2.80;2.42;;;;;;;14.68;58.53;96707.84;1677656;84;21039;-83
2021/09/11 01:04:37;;;;;;;3.35;2.20;;;;;;;14.68;58.90;96707.04;1665196;84;21127;-83
2021/09/11 01:07:04;;;;;;;3.30;2.25;;;;;;;14.66;58.83;96707.75;1694783;84;21016;-83
2021/09/11 01:09:30;;;;;;;3.85;2.05;;;;;;;14.65;58.80;96710.06;1675045;84;20983;-83
2021/09/11 01:11:56;;;;;;;5.33;2.12;;;;;;;14.63;58.64;96707.62;1675717;84;21415;-83
2021/09/11 01:14:21;;;;;;;5.35;2.92;;;;;;;14.63;58.63;96710.23;1674112;84;21097;-83
2021/09/11 01:16:47;;;;;;;4.50;2.20;;;;;;;14.62;58.74;96709.13;1682429;84;21031;-83
2021/09/11 01:19:13;;;;;;;3.37;2.27;;;;;;;14.61;58.82;96710.94;1688171;84;21071;-83
2021/09/11 01:21:40;;;;;;;5.80;2.70;;;;;;;14.61;58.83;96716.16;1688505;84;21095;-83
2021/09/11 01:24:06;;;;;;;4.30;2.42;;;;;;;14.60;58.72;96711.94;1664971;83;21085;-83
2021/09/11 01:26:32;;;;;;;5.10;2.40;;;;;;;14.60;58.50;96711.94;1694367;84;21579;-83
2021/09/11 01:28:58;;;;;;;3.75;2.00;;;;;;;14.61;58.58;96713.55;1679210;84;21054;-83
2021/09/11 01:31:26;;;;;;;4.17;2.60;;;;;;;14.62;58.32;96717.78;1686827;84;21067;-83
2021/09/11 01:33:52;;;;;;;4.62;2.15;;;;;;;14.62;58.46;96719.08;1682095;84;21000;-83
2021/09/11 01:36:18;;;;;;;3.77;2.30;;;;;;;14.61;58.47;96712.24;1674645;85;21083;-83
2021/09/11 01:38:44;;;;;;;2.70;1.95;;;;;;;14.63;58.52;96714.16;1675108;84;21043;-83
2021/09/11 01:41:11;;;;;;;3.20;2.27;;;;;;;14.65;58.75;96714.79;1678577;84;21000;-83
2021/09/11 01:43:37;;;;;;;3.37;1.85;;;;;;;14.66;58.76;96709.05;1672573;84;21059;-83
2021/09/11 01:46:03;;;;;;;4.10;2.33;;;;;;;14.65;58.41;96713.98;1675762;84;21164;-83
2021/09/11 01:48:28;;;;;;;6.47;2.22;;;;;;;14.63;58.48;96718.08;1627578;84;21082;-83
2021/09/11 01:50:54;;;;;;;3.83;2.20;;;;;;;14.60;58.58;96715.87;1689228;84;21580;-83
2021/09/11 01:53:21;;;;;;;6.08;2.17;;;;;;;14.60;58.49;96718.48;1679977;84;21066;-84
2021/09/11 01:55:48;;;;;;;5.67;2.30;;;;;;;14.60;58.33;96722.91;1670620;84;21042;-83
2021/09/11 01:58:13;;;;;;;5.97;2.65;;;;;;;14.58;58.60;96720.99;1668601;84;21043;-83
2021/09/11 02:00:39;;;;;;;3.90;2.10;;;;;;;14.56;58.51;96719.89;1678969;84;21055;-83
2021/09/11 02:03:06;;;;;;;7.00;2.67;;;;;;;14.57;58.70;96719.39;1650996;85;21014;-83
2021/09/11 02:05:32;;;;;;;4.33;2.02;;;;;;;14.57;58.99;96725.92;1694830;83;21134;-83
2021/09/11 02:07:58;;;;;;;3.45;2.40;;;;;;;14.56;58.67;96721.70;1717677;83;21079;-83
2021/09/11 02:10:24;;;;;;;2.95;1.98;;;;;;;14.56;58.55;96720.39;1725400;83;21291;-83
2021/09/11 02:12:50;;;;;;;4.08;1.80;;;;;;;14.55;58.48;96716.16;1716364;83;21397;-83
2021/09/11 02:15:15;;;;;;;3.45;1.90;;;;;;;14.55;58.52;96723.51;1722175;83;20986;-83
2021/09/11 02:17:41;;;;;;;3.58;2.08;;;;;;;14.57;58.35;96718.88;1721725;83;21383;-83
2021/09/11 02:20:09;;;;;;;3.20;1.90;;;;;;;14.58;58.53;96717.07;1709506;83;20996;-83
2021/09/11 02:22:35;;;;;;;5.22;2.20;;;;;;;14.58;58.28;96716.56;1692276;84;21021;-83
2021/09/11 02:25:01;;;;;;;3.80;2.50;;;;;;;14.57;58.40;96712.34;1668698;84;21098;-83
2021/09/11 02:27:27;;;;;;;4.65;2.42;;;;;;;14.59;58.25;96718.68;1678666;84;21373;-83
2021/09/11 02:29:53;;;;;;;3.02;2.02;;;;;;;14.57;58.48;96713.66;1697259;83;21074;-83
2021/09/11 02:32:18;;;;;;;4.53;2.22;;;;;;;14.57;58.54;96710.23;1687953;83;21184;-83
2021/09/11 02:34:44;;;;;;;5.25;2.55;;;;;;;14.56;58.44;96703.39;1697183;83;21138;-83
2021/09/11 02:37:11;;;;;;;5.20;2.67;;;;;;;14.57;58.65;96703.70;1677655;84;21053;-83
2021/09/11 02:39:38;;;;;;;2.83;2.00;;;;;;;14.55;58.73;96710.44;1657198;85;21014;-83
2021/09/11 02:42:06;;;;;;;4.55;2.20;;;;;;;14.53;58.71;96716.37;1668471;85;21402;-83
2021/09/11 02:44:32;;;;;;;4.20;2.20;;;;;;;14.53;58.64;96711.64;1630651;86;21025;-83
2021/09/11 02:46:57;;;;;;;3.67;2.10;;;;;;;14.53;58.80;96712.95;1679189;83;21060;-83
2021/09/11 02:49:23;;;;;;;5.55;2.20;;;;;;;14.51;59.14;96713.15;1709282;83;21445;-83
2021/09/11 02:51:49;;;;;;;3.00;1.95;;;;;;;14.51;58.85;96716.27;1687580;83;21066;-83
2021/09/11 02:54:14;;;;;;;3.72;1.82;;;;;;;14.52;58.69;96717.88;1688618;84;21101;-83
2021/09/11 02:56:40;;;;;;;5.03;2.58;;;;;;;14.52;59.00;96719.19;1671893;84;21089;-83
2021/09/11 02:59:06;;;;;;;3.58;2.10;;;;;;;14.50;58.81;96719.89;1685755;84;22108;-83
2021/09/11 03:01:32;;;;;;;4.85;2.35;;;;;;;14.49;58.91;96715.66;1698467;84;21026;-83
2021/09/11 03:03:59;;;;;;;3.17;1.98;;;;;;;14.48;58.77;96717.47;1696356;84;21488;-83
2021/09/11 03:06:24;;;;;;;4.67;1.90;;;;;;;14.47;58.88;96710.60;1677369;84;21465;-83
2021/09/11 03:08:50;;;;;;;2.70;1.90;;;;;;;14.48;58.68;96717.94;1698686;84;21066;-83
2021/09/11 03:11:16;;;;;;;4.03;2.15;;;;;;;14.47;58.82;96715.83;1679194;84;21085;-83
2021/09/11 03:13:42;;;;;;;4.55;2.30;;;;;;;14.47;59.00;96718.95;1667136;84;21043;-83
2021/09/11 03:16:09;;;;;;;5.58;1.95;;;;;;;14.47;58.61;96710.60;1683126;84;21028;-83
2021/09/11 03:18:35;;;;;;;3.77;2.10;;;;;;;14.48;58.66;96709.63;1669093;85;21393;-83
2021/09/11 03:21:01;;;;;;;4.15;2.00;;;;;;;14.48;58.77;96704.88;1668709;84;20988;-83
2021/09/11 03:23:27;;;;;;;5.03;2.50;;;;;;;14.47;58.98;96705.38;1678422;83;21004;-83
2021/09/11 03:25:53;;;;;;;3.17;2.00;;;;;;;14.47;59.05;96708.48;1693356;84;21424;-83
2021/09/11 03:28:19;;;;;;;7.53;2.70;;;;;;;14.46;58.99;96702.96;1680421;84;21029;-83
2021/09/11 03:30:44;;;;;;;4.12;1.85;;;;;;;14.45;58.98;96706.58;1683673;84;21323;-83
2021/09/11 03:33:10;;;;;;;3.95;2.15;;;;;;;14.45;58.83;96700.84;1695460;84;21030;-83
2021/09/11 03:35:36;;;;;;;3.45;2.42;;;;;;;14.46;58.82;96690.69;1693378;84;21515;-82
2021/09/11 03:38:02;;;;;;;3.70;2.12;;;;;;;14.47;58.84;96698.03;1698471;84;21106;-83
2021/09/11 03:40:27;;;;;;;3.50;2.30;;;;;;;14.48;58.60;96698.33;1690174;84;21003;-83
2021/09/11 03:42:53;;;;;;;4.08;2.20;;;;;;;14.51;58.49;96692.73;1707724;84;21026;-83
2021/09/11 03:45:19;;;;;;;2.65;1.95;;;;;;;14.52;58.29;96690.42;1667432;84;21109;-83
2021/09/11 03:47:45;;;;;;;4.15;2.10;;;;;;;14.52;58.40;96689.11;1674204;84;21098;-83
2021/09/11 03:50:10;;;;;;;2.00;1.70;;;;;;;14.52;58.21;96687.80;1691582;83;21056;-83
2021/09/11 03:52:36;;;;;;;3.22;2.58;;;;;;;14.52;58.29;96689.11;1695265;83;21020;-83
2021/09/11 03:55:04;;;;;;;4.60;2.30;;;;;;;14.50;58.25;96683.28;1663031;85;21023;-83
2021/09/11 03:57:32;;;;;;;2.85;2.02;;;;;;;14.49;58.39;96685.09;1669219;84;20981;-83
2021/09/11 03:59:58;;;;;;;3.02;2.02;;;;;;;14.48;58.22;96684.79;1652732;85;21104;-83
2021/09/11 04:02:24;;;;;;;4.00;2.47;;;;;;;14.50;58.03;96683.28;1671407;85;21040;-83
2021/09/11 04:04:50;;;;;;;3.40;1.90;;;;;;;14.51;58.14;96689.62;1683677;84;21004;-83
2021/09/11 04:07:16;;;;;;;4.72;2.20;;;;;;;14.51;58.19;96687.00;1683712;84;21012;-83
2021/09/11 04:09:42;;;;;;;4.62;2.25;;;;;;;14.49;58.03;96689.52;1694830;84;21008;-83
2021/09/11 04:12:08;;;;;;;3.92;2.35;;;;;;;14.50;58.17;96685.89;1681568;83;21050;-83
2021/09/11 04:14:34;;;;;;;5.08;2.72;;;;;;;14.49;58.21;96690.32;1673368;84;21078;-83
2021/09/11 04:17:00;;;;;;;2.55;2.10;;;;;;;14.51;57.80;96688.31;1663362;84;21060;-83
2021/09/11 04:19:25;;;;;;;3.90;2.30;;;;;;;14.53;58.45;96689.41;1661471;85;21464;-83
2021/09/11 04:21:51;;;;;;;4.45;2.25;;;;;;;14.55;58.37;96692.13;1627228;85;21102;-83
2021/09/11 04:24:17;;;;;;;3.67;2.30;;;;;;;14.57;58.22;96688.00;1678304;84;21094;-83
2021/09/11 04:26:42;;;;;;;4.17;2.15;;;;;;;14.58;57.91;96689.11;1690601;84;21434;-83
2021/09/11 04:29:08;;;;;;;3.75;2.65;;;;;;;14.60;57.81;96692.33;1674542;84;21155;-83
2021/09/11 04:31:34;;;;;;;4.92;2.52;;;;;;;14.61;57.93;96695.24;1683031;84;21058;-83
2021/09/11 04:34:00;;;;;;;4.60;2.10;;;;;;;14.60;58.35;96695.45;1706475;83;20983;-83
2021/09/11 04:36:26;;;;;;;4.03;2.10;;;;;;;14.62;58.05;96689.52;1685337;84;21059;-83
2021/09/11 04:38:51;;;;;;;4.00;1.95;;;;;;;14.64;58.15;96695.34;1668305;84;21028;-83
2021/09/11 04:41:17;;;;;;;3.50;2.10;;;;;;;14.64;58.04;96693.56;1663679;84;21420;-83
2021/09/11 04:43:43;;;;;;;4.17;2.35;;;;;;;14.66;58.21;96695.98;1678644;84;21039;-83
2021/09/11 04:46:09;;;;;;;6.10;2.40;;;;;;;14.71;57.72;96690.95;1687121;84;21074;-83
2021/09/11 04:48:34;;;;;;;4.22;2.12;;;;;;;14.78;57.87;96689.62;1688170;84;21043;-83
2021/09/11 04:51:00;;;;;;;2.83;2.10;;;;;;;14.79;57.93;96689.93;1659812;84;21021;-83
2021/09/11 04:53:26;;;;;;;3.45;2.12;;;;;;;14.76;57.82;96693.75;1663452;85;21362;-83
2021/09/11 04:55:52;;;;;;;4.33;2.50;;;;;;;14.77;58.21;96699.80;1677157;84;21038;-82
2021/09/11 04:58:17;;;;;;;2.77;2.05;;;;;;;14.76;58.25;96701.60;1684723;84;21098;-83
2021/09/11 05:00:43;;;;;;;4.95;2.40;;;;;;;14.76;58.37;96695.56;1673096;85;20996;-83
2021/09/11 05:03:09;;;;;;;3.62;2.05;;;;;;;14.76;58.25;96704.22;1666254;83;21085;-83
2021/09/11 05:05:35;;;;;;;3.77;2.20;;;;;;;14.76;58.46;96706.03;1680571;84;21030;-83
2021/09/11 05:08:01;;;;;;;3.42;2.00;;;;;;;14.75;58.70;96703.92;1685726;84;21064;-83
2021/09/11 05:10:27;;;;;;;2.52;2.12;;;;;;;14.74;59.04;96701.50;1666812;84;21059;-83
2021/09/11 05:12:53;;;;;;;2.95;2.25;;;;;;;14.74;59.07;96708.05;1654291;84;21524;-83
2021/09/11 05:15:19;;;;;;;4.47;2.60;;;;;;;14.74;59.27;96704.12;1657908;86;21048;-83
2021/09/11 05:17:45;;;;;;;5.00;2.30;;;;;;;14.73;59.51;96709.86;1660429;84;21053;-83
2021/09/11 05:20:11;;;;;;;4.65;2.22;;;;;;;14.70;59.52;96714.19;1678012;84;21007;-83
2021/09/11 05:22:37;;;;;;;4.78;2.40;;;;;;;14.69;59.95;96705.53;1690910;84;21079;-83
2021/09/11 05:25:05;;;;;;;3.60;2.12;;;;;;;14.67;60.13;96710.16;1683064;84;21225;-83
2021/09/11 05:27:31;;;;;;;4.00;2.50;;;;;;;14.67;60.00;96710.16;1673934;84;21363;-83
2021/09/11 05:29:57;;;;;;;3.40;2.00;;;;;;;14.66;60.41;96711.16;1652344;85;21017;-83
2021/09/11 05:32:23;;;;;;;5.50;2.10;;;;;;;14.65;60.53;96710.87;1662474;84;21066;-83
2021/09/11 05:34:48;;;;;;;3.30;2.12;;;;;;;14.65;60.62;96712.17;1653385;85;21328;-83
2021/09/11 05:37:14;;;;;;;3.42;2.27;;;;;;;14.68;60.67;96713.08;1681494;84;21011;-83
2021/09/11 05:39:40;;;;;;;4.42;2.37;;;;;;;14.72;60.83;96716.09;1671202;84;21503;-83
2021/09/11 05:42:07;;;;;;;3.98;2.47;;;;;;;14.74;60.56;96712.77;1657578;84;21029;-83
2021/09/11 05:44:34;;;;;;;4.65;2.72;;;;;;;14.77;60.89;96706.33;1667796;84;21213;-83
2021/09/11 05:47:00;;;;;;;3.22;2.37;;;;;;;14.78;61.03;96711.36;1668436;84;21435;-83
2021/09/11 05:49:26;;;;;;;3.37;2.60;;;;;;;14.83;61.33;96713.40;1681923;84;21028;-83
2021/09/11 05:51:53;;;;;;;15.68;3.00;;;;;;;14.88;61.40;96708.36;1677430;84;21075;-83
2021/09/11 05:54:19;;;;;;;3.27;2.33;;;;;;;14.93;61.32;96711.98;1650833;85;21028;-83
2021/09/11 05:56:45;;;;;;;3.55;2.45;;;;;;;15.00;60.79;96710.19;1667279;85;21025;-83
2021/09/11 05:59:11;;;;;;;4.80;3.30;;;;;;;15.07;61.43;96704.94;1683010;84;20995;-83
2021/09/11 06:01:36;;;;;;;3.08;2.50;;;;;;;15.13;61.83;96711.17;1676767;84;21394;-83
2021/09/11 06:04:03;;;;;;;3.33;2.25;;;;;;;15.16;61.92;96709.48;1670806;84;20984;-83
2021/09/11 06:06:28;;;;;;;2.58;2.22;;;;;;;15.19;62.00;96702.53;1679029;84;21476;-83
2021/09/11 06:08:54;;;;;;;6.08;2.60;;;;;;;15.22;62.21;96709.97;1683576;84;21102;-83
2021/09/11 06:11:22;;;;;;;3.47;2.40;;;;;;;15.26;61.98;96709.36;1706295;83;21038;-83
2021/09/11 06:13:48;;;;;;;4.97;2.30;;;;;;;15.31;61.96;96715.31;1707260;83;21053;-82
2021/09/11 06:16:14;;;;;;;6.22;2.75;;;;;;;15.34;62.03;96716.20;1685596;84;21397;-83
2021/09/11 06:18:39;;;;;;;3.35;2.08;;;;;;;15.37;62.39;96716.30;1670795;84;21024;-83
2021/09/11 06:21:05;;;;;;;3.83;2.35;;;;;;;15.40;62.26;96717.20;1686335;84;21091;-83
2021/09/11 06:23:31;;;;;;;4.35;2.37;;;;;;;15.42;62.31;96720.41;1687459;84;20998;-83
2021/09/11 06:25:57;;;;;;;3.25;2.40;;;;;;;15.44;62.39;96724.94;1677229;84;21380;-83
2021/09/11 06:28:24;;;;;;;4.83;2.40;;;;;;;15.46;62.66;96725.06;1687560;84;21113;-83
2021/09/11 06:30:51;;;;;;;4.20;2.30;;;;;;;15.48;61.94;96725.66;1703481;84;20992;-83
2021/09/11 06:33:17;;;;;;;3.85;2.30;;;;;;;15.55;62.54;96722.52;1679568;84;21584;-83
2021/09/11 06:35:42;;;;;;;5.05;2.70;;;;;;;15.60;62.46;96723.23;1680826;84;21062;-83
2021/09/11 06:38:08;;;;;;;2.95;2.45;;;;;;;15.67;62.54;96727.17;1682109;84;20974;-83
2021/09/11 06:40:34;;;;;;;5.95;2.67;;;;;;;15.79;62.02;96734.70;1671751;84;21026;-83
2021/09/11 06:42:59;;;;;;;2.98;2.30;;;;;;;15.89;61.95;96727.20;1675374;84;20986;-83
2021/09/11 06:45:25;;;;;;;4.08;2.30;;;;;;;15.98;61.80;96738.27;1664523;84;21030;-83
2021/09/11 06:47:51;;;;;;;3.02;2.30;;;;;;;16.02;62.50;96731.59;1678169;85;20993;-83
2021/09/11 06:50:17;;;;;;;2.70;2.10;;;;;;;16.06;62.25;96732.28;1671830;84;21388;-83
2021/09/11 06:52:42;;;;;;;4.90;2.37;;;;;;;16.12;62.06;96733.28;1668887;85;21028;-83
2021/09/11 06:55:09;;;;;;;4.92;2.70;;;;;;;16.18;60.96;96731.13;1693673;84;21079;-83
2021/09/11 06:57:35;;;;;;;4.30;2.50;;;;;;;16.25;61.83;96730.59;1684581;84;21082;-83
2021/09/11 07:00:03;;;;;;;5.47;2.72;;;;;;;16.28;61.80;96726.77;1685741;84;21072;-83
2021/09/11 07:02:28;;;;;;;3.05;2.17;;;;;;;16.34;61.78;96736.41;1670063;84;20968;-83
2021/09/11 07:04:54;;;;;;;5.97;2.85;;;;;;;16.38;61.83;96733.66;1675685;84;21085;-83
2021/09/11 07:07:20;;;;;;;6.25;2.35;;;;;;;16.44;61.45;96734.16;1676238;84;21450;-83
2021/09/11 07:09:46;;;;;;;4.25;2.72;;;;;;;16.50;60.86;96735.41;1668538;84;21053;-83
2021/09/11 07:12:12;;;;;;;3.25;2.20;;;;;;;16.56;61.15;96733.76;1685647;84;21069;-82
2021/09/11 07:14:38;;;;;;;4.47;2.60;;;;;;;16.60;61.65;96731.03;1684341;84;21491;-83
2021/09/11 07:17:04;;;;;;;5.60;2.40;;;;;;;16.67;61.33;96734.95;1688887;84;21082;-83
2021/09/11 07:19:29;;;;;;;5.92;2.62;;;;;;;16.72;59.85;96736.42;1691768;84;21118;-83
2021/09/11 07:21:56;;;;;;;2.70;2.40;;;;;;;16.80;59.69;96736.98;1660981;85;21059;-83
2021/09/11 07:24:22;;;;;;;5.50;2.45;;;;;;;16.89;59.41;96736.21;1671851;84;21143;-83
2021/09/11 07:26:48;;;;;;;3.47;2.45;;;;;;;17.01;59.78;96738.95;1675516;85;21523;-83
2021/09/11 07:29:14;;;;;;;7.72;2.30;;;;;;;17.07;58.60;96742.03;1690203;84;21031;-83
2021/09/11 07:31:41;;;;;;;3.98;2.80;;;;;;;17.15;59.60;96744.41;1673501;85;21127;-83
2021/09/11 07:34:06;;;;;;;4.30;2.60;;;;;;;17.18;60.96;96737.41;1719892;83;21027;-83
2021/09/11 07:36:32;;;;;;;3.33;2.72;;;;;;;17.20;60.49;96739.82;1710839;83;21010;-83
2021/09/11 07:38:58;;;;;;;6.33;2.67;;;;;;;17.30;58.84;96747.52;1682724;84;20979;-83
2021/09/11 07:41:24;;;;;;;3.10;2.27;;;;;;;17.38;60.58;96746.44;1676249;84;21386;-83
2021/09/11 07:43:50;;;;;;;4.15;2.40;;;;;;;17.39;60.36;96744.91;1688325;84;21027;-83
2021/09/11 07:46:15;;;;;;;4.35;2.55;;;;;;;17.52;59.26;96744.50;1681492;84;21027;-83
2021/09/11 07:48:41;;;;;;;2.80;2.35;;;;;;;17.60;59.02;96745.55;1679702;84;21390;-83
2021/09/11 07:51:07;;;;;;;3.10;2.15;;;;;;;17.66;59.78;96746.78;1693150;84;21113;-83
2021/09/11 07:53:32;;;;;;;3.65;2.15;;;;;;;17.70;59.75;96745.86;1692511;83;21430;-83
2021/09/11 07:56:00;;;;;;;4.97;2.25;;;;;;;17.74;59.43;96741.80;1697333;83;21061;-83
2021/09/11 07:58:26;;;;;;;3.92;2.60;;;;;;;17.78;60.02;96745.59;1680255;84;21068;-83
2021/09/11 08:00:53;;;;;;;4.37;2.20;;;;;;;17.84;59.48;96746.03;1684342;84;21039;-83
2021/09/11 08:03:19;;;;;;;4.15;2.42;;;;;;;17.89;60.20;96741.42;1652454;85;21055;-83
2021/09/11 08:05:45;;;;;;;4.78;2.50;;;;;;;17.97;58.57;96745.89;1681180;84;21046;-83
2021/09/11 08:08:11;;;;;;;4.00;2.58;;;;;;;18.05;59.09;96749.23;1670723;84;21397;-83
2021/09/11 08:10:37;;;;;;;2.62;2.30;;;;;;;18.11;58.55;96751.81;1691902;84;21049;-83
2021/09/11 08:13:03;;;;;;;3.50;2.50;;;;;;;18.18;58.08;96753.03;1685334;84;21042;-83
2021/09/11 08:15:29;;;;;;;4.17;2.87;;;;;;;18.27;57.22;96746.47;1688437;84;21366;-83
2021/09/11 08:17:55;;;;;;;6.55;2.40;;;;;;;18.36;58.41;96742.48;1695262;84;21008;-83
2021/09/11 08:20:21;;;;;;;3.72;2.60;;;;;;;18.41;57.92;96749.23;1701640;84;20964;-83
2021/09/11 08:22:47;;;;;;;3.98;2.67;;;;;;;18.45;58.61;96746.95;1691490;84;21386;-83
2021/09/11 08:25:13;;;;;;;3.52;2.27;;;;;;;18.51;59.02;96749.99;1685672;84;21093;-83
2021/09/11 08:27:39;;;;;;;4.97;2.90;;;;;;;18.57;57.94;96749.13;1672964;85;21118;-83
2021/09/11 08:30:05;;;;;;;3.92;2.70;;;;;;;18.65;58.56;96751.45;1683658;84;21064;-83
2021/09/11 08:32:33;;;;;;;4.92;2.65;;;;;;;18.71;58.41;96747.12;1671358;84;21046;-84
2021/09/11 08:34:59;;;;;;;6.85;2.62;;;;;;;18.76;58.10;96746.76;1666548;84;21140;-83
2021/09/11 08:37:25;;;;;;;3.80;2.47;;;;;;;18.83;58.37;96741.39;1665071;84;21115;-83
2021/09/11 08:39:51;;;;;;;4.30;2.47;;;;;;;18.90;55.91;96748.69;1667325;84;21129;-83
2021/09/11 08:42:19;;;;;;;4.67;3.10;;;;;;;19.07;56.41;96742.26;1691727;84;21099;-83
2021/09/11 08:44:45;;;;;;;3.85;2.60;;;;;;;19.14;57.43;96740.31;1688750;84;21033;-83
2021/09/11 08:47:11;;;;;;;2.98;2.37;;;;;;;19.18;56.21;96746.20;1686242;84;21445;-83
2021/09/11 08:49:36;;;;;;;3.10;2.50;;;;;;;19.21;56.88;96743.66;1657096;85;21083;-83
2021/09/11 08:52:07;;;;;;;4.95;2.98;;;;;;;19.25;56.64;96738.73;1675625;84;21081;-83
2021/09/11 08:54:35;;;;;;;3.33;2.30;;;;;;;19.28;56.39;96737.76;1674742;84;21068;-83
2021/09/11 08:57:23;;;;;;;6.47;2.08;;;;;;;19.34;56.00;96738.67;1679049;84;21007;-83
2021/09/11 08:59:49;;;;;;;3.87;2.85;;;;;;;19.43;54.66;96737.31;1679849;84;21038;-83
2021/09/11 09:02:16;;;;;;;4.20;2.65;;;;;;;19.52;56.87;96735.92;1680823;84;21080;-83
2021/09/11 09:05:00;;;;;;;3.85;2.37;;;;;;;19.55;57.11;96739.98;1639339;84;21413;-83
2021/09/11 09:07:40;;;;;;;3.12;2.40;;;;;;;19.57;56.44;96736.09;1671857;84;21440;-83
2021/09/11 09:10:15;;;;;;;3.85;3.30;;;;;;;19.62;56.22;96736.71;1684364;84;21100;-83
2021/09/11 09:12:45;;;;;;;3.40;2.37;;;;;;;19.64;56.42;96730.17;1682020;84;21402;-83
2021/09/11 09:15:17;;;;;;;4.85;2.70;;;;;;;19.67;56.86;96725.75;1677753;84;20972;-83
2021/09/11 09:17:49;;;;;;;3.92;2.30;;;;;;;19.73;55.78;96726.69;1713669;83;21389;-83
2021/09/11 09:20:25;;;;;;;4.17;2.75;;;;;;;19.77;55.81;96731.25;1679207;84;20980;-83
2021/09/11 09:23:02;;;;;;;3.52;2.20;;;;;;;19.82;54.80;96731.87;1678161;84;21055;-83
2021/09/11 09:25:30;;;;;;;3.83;2.50;;;;;;;19.91;56.67;96729.70;1661970;84;21065;-84
2021/09/11 09:27:58;;;;;;;4.58;2.60;;;;;;;19.92;56.81;96726.02;1651303;85;20992;-83
2021/09/11 09:30:43;;;;;;;4.25;3.08;;;;;;;19.95;56.75;96732.14;1671468;85;21012;-83
2021/09/11 09:33:19;;;;;;;4.70;2.83;;;;;;;19.96;56.61;96730.59;1672018;84;20999;-83
2021/09/11 09:35:45;;;;;;;4.33;2.40;;;;;;;20.00;56.60;96725.64;1659010;85;21046;-83
2021/09/11 09:38:11;;;;;;;3.35;2.52;;;;;;;19.99;56.51;96731.44;1675403;85;21458;-83
2021/09/11 09:40:42;;;;;;;4.85;2.58;;;;;;;20.04;57.00;96726.29;1671427;84;21174;-83
2021/09/11 09:43:09;;;;;;;3.42;2.42;;;;;;;20.09;54.18;96731.66;1671332;85;21044;-83
2021/09/11 09:45:35;;;;;;;5.30;2.10;;;;;;;20.27;53.32;96725.94;1659332;85;21371;-83
2021/09/11 09:48:09;;;;;;;5.25;2.70;;;;;;;20.38;53.43;96725.10;1674496;85;21016;-83
2021/09/11 09:50:40;;;;;;;3.87;2.50;;;;;;;20.43;56.36;96729.18;1681432;84;21047;-83
2021/09/11 09:53:08;;;;;;;4.78;2.47;;;;;;;20.44;55.30;96727.34;1686074;84;21024;-83
2021/09/11 09:55:36;;;;;;;3.60;2.30;;;;;;;20.48;55.42;96731.91;1683161;84;21405;-83
2021/09/11 09:58:02;;;;;;;3.98;2.58;;;;;;;20.54;52.52;96727.54;1689170;84;20988;-83
2021/09/11 10:00:29;;;;;;;5.45;2.90;;;;;;;20.61;56.68;96727.66;1692829;84;21368;-84
2021/09/11 10:02:54;;;;;;;6.17;3.50;;;;;;;20.61;56.98;96735.59;1680452;84;20999;-84
2021/09/11 10:05:24;;;;;;;4.50;2.40;;;;;;;20.62;54.53;96733.75;1673900;84;22149;-84
2021/09/11 10:08:07;;;;;;;3.85;2.17;;;;;;;20.67;55.70;96734.66;1697171;84;21470;-83
2021/09/11 10:10:47;;;;;;;3.22;2.10;;;;;;;20.70;56.04;96729.94;1695189;84;21092;-83
2021/09/11 10:13:18;;;;;;;4.80;2.10;;;;;;;20.71;54.90;96727.06;1699870;84;21023;-83
2021/09/11 10:15:56;;;;;;;3.70;2.40;;;;;;;20.78;54.72;96727.70;1683924;84;21031;-84
2021/09/11 10:18:37;;;;;;;4.92;2.20;;;;;;;20.85;55.74;96728.37;1697982;84;21028;-83
2021/09/11 10:21:34;;;;;;;3.73;2.83;;;;;;;20.98;52.38;96730.68;1682611;84;21139;-84
2021/09/11 10:24:02;;;;;;;3.15;2.50;;;;;;;21.18;52.17;96728.91;1686437;83;21051;-83
2021/09/11 10:26:54;;;;;;;3.30;2.42;;;;;;;21.31;51.34;96728.32;1692322;83;21504;-83
2021/09/11 10:29:37;;;;;;;3.67;2.25;;;;;;;21.35;54.28;96731.58;1660363;85;21049;-83
2021/09/11 10:32:41;;;;;;;5.55;2.02;;;;;;;21.36;55.25;96725.77;1679191;84;21018;-84
2021/09/11 10:35:12;;;;;;;3.90;2.27;;;;;;;21.38;54.63;96732.41;1680223;84;21033;-84
2021/09/11 10:37:50;;;;;;;5.55;2.08;;;;;;;21.39;55.82;96722.12;1678996;84;21030;-83
2021/09/11 10:40:36;;;;;;;7.12;2.33;;;;;;;21.39;56.07;96720.80;1687318;84;21094;-84
2021/09/11 10:43:10;;;;;;;4.67;2.85;;;;;;;21.35;56.66;96722.33;1683436;84;21460;-83
2021/09/11 10:45:46;;;;;;;3.95;2.65;;;;;;;21.35;54.89;96722.33;1657975;85;21070;-83
2021/09/11 10:48:44;;;;;;;6.22;2.37;;;;;;;21.43;54.42;96721.91;1707745;83;21072;-84
2021/09/11 10:51:36;;;;;;;5.70;2.20;;;;;;;21.51;54.66;96720.72;1657455;84;21031;-83
2021/09/11 10:54:15;;;;;;;4.97;2.27;;;;;;;21.55;50.46;96717.33;1663784;84;21036;-83
2021/09/11 10:56:55;;;;;;;4.00;2.58;;;;;;;21.66;51.00;96720.94;1659646;86;20995;-83
2021/09/11 10:59:30;;;;;;;3.98;2.30;;;;;;;21.72;53.73;96713.86;1665075;84;21081;-84
2021/09/11 11:02:33;;;;;;;4.62;2.55;;;;;;;21.70;50.26;96710.14;1717545;83;21042;-84
2021/09/11 11:05:10;;;;;;;6.67;4.25;;;;;;;21.78;55.09;96711.55;1661571;84;21107;-84
2021/09/11 11:07:48;;;;;;;5.20;3.87;;;;;;;21.86;52.28;96707.97;1665867;84;21059;-84
2021/09/11 11:10:21;;;;;;;6.62;3.47;;;;;;;21.95;52.72;96712.30;1706153;83;20979;-84
2021/09/11 11:12:49;;;;;;;4.97;3.85;;;;;;;21.99;52.60;96716.60;1705891;84;21035;-83
2021/09/11 11:15:25;;;;;;;4.78;2.60;;;;;;;22.07;51.68;96712.22;1692653;84;21034;-84
2021/09/11 11:17:51;;;;;;;4.90;2.80;;;;;;;22.23;48.36;96706.59;1666177;84;21471;-83
2021/09/11 11:20:24;;;;;;;4.85;2.80;;;;;;;22.36;48.21;96704.88;1701937;84;21083;-83
2021/09/11 11:22:50;;;;;;;4.37;2.40;;;;;;;22.46;45.78;96702.36;1688327;84;21065;-84
2021/09/11 11:25:36;;;;;;;5.35;2.58;;;;;;;22.55;49.52;96700.84;1679557;84;22046;-84
2021/09/11 11:28:09;;;;;;;2.95;2.10;;;;;;;22.54;51.21;96699.25;1679988;84;21036;-84
2021/09/11 11:30:41;;;;;;;3.42;2.30;;;;;;;22.51;52.68;96702.40;1698005;84;21015;-84
2021/09/11 11:33:06;;;;;;;5.25;2.50;;;;;;;22.50;53.97;96699.48;1675957;84;21023;-84
2021/09/11 11:35:33;;;;;;;5.15;2.90;;;;;;;22.44;53.87;96691.98;1681068;84;21059;-83
2021/09/11 11:37:59;;;;;;;4.08;2.90;;;;;;;22.40;54.84;96691.42;1687254;84;21066;-84